createdAt,value
2024-03-07T00:00:14.109Z,28.92
2024-03-07T00:02:41.750Z,31.55
2024-03-07T00:05:10.212Z,28.38
2024-03-07T00:07:38.064Z,30.02
2024-03-07T00:10:07.209Z,29.02
2024-03-07T00:12:34.941Z,30.42
2024-03-07T00:15:03.802Z,31.77
2024-03-07T00:17:32.625Z,30.67
2024-03-07T00:20:00.071Z,31.23
2024-03-07T00:22:27.445Z,30.02
2024-03-07T00:24:54.775Z,30.05
2024-03-07T00:27:23.173Z,32.17
2024-03-07T00:32:17.952Z,29.70
2024-03-07T00:34:47.053Z,30.15
2024-03-07T00:37:14.406Z,28.42
2024-03-07T00:39:43.589Z,27.27
2024-03-07T00:42:11.138Z,27.75
2024-03-07T00:44:38.802Z,28.25
2024-03-07T00:47:06.249Z,27.67
2024-03-07T00:49:33.550Z,28.85
2024-03-07T00:52:02.231Z,27.35
2024-03-07T00:54:29.575Z,26.38
2024-03-07T00:56:56.932Z,27.65
2024-03-07T00:59:24.302Z,28.13
2024-03-07T01:01:51.694Z,29.42
2024-03-07T01:04:19.004Z,28.40
2024-03-07T01:06:46.422Z,29.88
2024-03-07T01:09:15.501Z,27.25
2024-03-07T01:11:44.378Z,28.77
2024-03-07T01:14:12.473Z,28.15
2024-03-07T01:16:39.788Z,28.08
2024-03-07T01:19:07.952Z,29.55
2024-03-07T01:21:38.703Z,30.80
2024-03-07T01:24:07.260Z,28.67
2024-03-07T01:26:37.996Z,29.35
2024-03-07T01:29:05.697Z,29.90
2024-03-07T01:31:33.063Z,33.53
2024-03-07T01:34:00.692Z,27.17
2024-03-07T01:36:28.002Z,27.20
2024-03-07T01:38:55.407Z,27.58
2024-03-07T01:41:23.650Z,28.88
2024-03-07T01:43:53.568Z,27.17
2024-03-07T01:46:21.341Z,28.15
2024-03-07T01:48:48.820Z,28.92
2024-03-07T01:51:16.677Z,30.40
2024-03-07T01:53:44.450Z,28.98
2024-03-07T01:56:11.941Z,27.10
2024-03-07T01:58:41.486Z,29.45
2024-03-07T02:01:10.568Z,29.33
2024-03-07T02:03:37.962Z,28.48
2024-03-07T02:06:05.337Z,29.80
2024-03-07T02:08:33.079Z,28.48
2024-03-07T02:11:00.572Z,29.35
2024-03-07T02:13:27.904Z,28.17
2024-03-07T02:15:55.444Z,36.08
2024-03-07T02:18:24.310Z,28.65
2024-03-07T02:20:53.386Z,27.58
2024-03-07T02:23:20.737Z,27.48
2024-03-07T02:25:48.050Z,28.38
2024-03-07T02:28:15.625Z,29.23
2024-03-07T02:30:42.936Z,31.13
2024-03-07T02:33:12.758Z,28.15
2024-03-07T02:35:40.256Z,31.23
2024-03-07T02:38:09.137Z,30.08
2024-03-07T02:40:36.759Z,31.08
2024-03-07T02:43:04.391Z,27.73
2024-03-07T02:45:34.741Z,33.47
2024-03-07T02:48:02.266Z,26.92
2024-03-07T02:50:29.671Z,28.02
2024-03-07T02:52:57.311Z,28.98
2024-03-07T02:55:27.458Z,37.72
2024-03-07T02:57:55.057Z,28.35
2024-03-07T03:00:22.675Z,29.60
2024-03-07T03:02:50.565Z,28.58
2024-03-07T03:05:18.409Z,26.73
2024-03-07T03:07:46.324Z,26.88
2024-03-07T03:10:13.760Z,29.67
2024-03-07T03:12:42.528Z,26.67
2024-03-07T03:15:10.366Z,26.00
2024-03-07T03:17:37.976Z,28.13
2024-03-07T03:20:07.734Z,28.38
2024-03-07T03:22:35.058Z,29.45
2024-03-07T03:25:02.647Z,27.05
2024-03-07T03:27:29.964Z,28.42
2024-03-07T03:29:58.822Z,26.75
2024-03-07T03:32:26.306Z,25.73
2024-03-07T03:34:53.596Z,27.77
2024-03-07T03:37:21.127Z,27.88
2024-03-07T03:39:48.459Z,25.60
2024-03-07T03:42:16.861Z,27.08
2024-03-07T03:44:44.152Z,22.30
2024-03-07T03:47:13.173Z,25.50
2024-03-07T03:49:40.536Z,26.77
2024-03-07T03:52:07.844Z,25.15
2024-03-07T03:54:36.362Z,24.98
2024-03-07T03:59:30.940Z,22.20
2024-03-07T04:01:58.329Z,22.23
2024-03-07T04:04:27.156Z,23.15
2024-03-07T04:06:54.531Z,22.45
2024-03-07T04:09:21.834Z,23.23
2024-03-07T04:11:49.269Z,23.70
2024-03-07T04:14:17.161Z,24.42
2024-03-07T04:16:44.507Z,23.17
2024-03-07T04:19:12.065Z,24.50
2024-03-07T04:21:40.775Z,24.25
2024-03-07T04:24:08.261Z,25.30
2024-03-07T04:26:35.639Z,23.20
2024-03-07T04:29:02.987Z,24.42
2024-03-07T04:31:30.382Z,25.73
2024-03-07T04:33:58.927Z,23.20
2024-03-07T04:38:54.809Z,20.15
2024-03-07T04:41:22.573Z,22.10
2024-03-07T04:43:49.946Z,22.63
2024-03-07T04:46:17.275Z,24.85
2024-03-07T04:48:44.665Z,24.00
2024-03-07T04:51:12.269Z,21.73
2024-03-07T04:53:39.677Z,21.92
2024-03-07T04:56:08.404Z,24.48
2024-03-07T04:58:35.701Z,22.92
2024-03-07T05:01:03.480Z,24.90
2024-03-07T05:03:30.816Z,23.70
2024-03-07T05:06:00.677Z,23.70
2024-03-07T05:08:28.171Z,21.75
2024-03-07T05:10:55.497Z,24.48
2024-03-07T05:13:24.204Z,23.63
2024-03-07T05:15:51.562Z,23.40
2024-03-07T05:18:20.100Z,24.63
2024-03-07T05:20:47.478Z,25.13
2024-03-07T05:23:17.089Z,24.42
2024-03-07T05:25:45.346Z,25.48
2024-03-07T05:28:12.809Z,22.80
2024-03-07T05:30:41.805Z,24.38
2024-03-07T05:33:09.157Z,22.67
2024-03-07T05:35:36.781Z,21.80
2024-03-07T05:38:04.443Z,28.70
2024-03-07T05:40:31.761Z,26.17
2024-03-07T05:42:59.155Z,26.17
2024-03-07T05:45:26.771Z,23.40
2024-03-07T05:47:55.615Z,22.55
2024-03-07T05:50:23.112Z,27.02
2024-03-07T05:52:50.525Z,20.27
2024-03-07T05:55:17.840Z,21.02
2024-03-07T05:57:45.132Z,19.77
2024-03-07T06:00:14.096Z,24.02
2024-03-07T06:02:41.603Z,21.50
2024-03-07T06:05:12.973Z,22.60
2024-03-07T06:07:40.418Z,21.23
2024-03-07T06:10:09.713Z,23.52
2024-03-07T06:12:40.062Z,21.10
2024-03-07T06:15:11.297Z,20.45
2024-03-07T06:17:38.643Z,21.70
2024-03-07T06:20:07.540Z,20.75
2024-03-07T06:22:36.579Z,21.15
2024-03-07T06:25:04.113Z,22.80
2024-03-07T06:27:31.499Z,24.58
2024-03-07T06:29:58.897Z,19.55
2024-03-07T06:32:26.303Z,20.92
2024-03-07T06:34:53.642Z,19.42
2024-03-07T06:37:20.979Z,20.90
2024-03-07T06:39:49.638Z,22.85
2024-03-07T06:42:17.352Z,19.02
2024-03-07T06:44:44.962Z,19.50
2024-03-07T06:47:12.436Z,20.85
2024-03-07T06:49:39.828Z,19.13
2024-03-07T06:52:07.272Z,21.60
2024-03-07T06:54:34.653Z,17.88
2024-03-07T06:57:04.030Z,16.77
2024-03-07T06:59:31.443Z,20.27
2024-03-07T07:01:58.923Z,18.05
2024-03-07T07:04:26.223Z,17.58
2024-03-07T07:06:53.610Z,17.25
2024-03-07T07:09:20.945Z,16.38
2024-03-07T07:11:48.322Z,19.17
2024-03-07T07:14:17.174Z,17.02
2024-03-07T07:16:44.685Z,15.10
2024-03-07T07:19:12.243Z,16.25
2024-03-07T07:21:40.281Z,16.77
2024-03-07T07:24:07.666Z,13.88
2024-03-07T07:26:35.550Z,15.65
2024-03-07T07:29:03.003Z,15.40
2024-03-07T07:31:31.742Z,14.98
2024-03-07T07:33:59.283Z,16.63
2024-03-07T07:36:28.317Z,15.48
2024-03-07T07:38:58.091Z,16.63
2024-03-07T07:41:25.516Z,13.50
2024-03-07T07:43:52.934Z,14.88
2024-03-07T07:46:21.204Z,15.80
2024-03-07T07:48:50.056Z,14.07
2024-03-07T07:51:17.857Z,15.63
2024-03-07T07:53:45.212Z,13.25
2024-03-07T07:56:12.629Z,14.45
2024-03-07T07:58:39.981Z,14.43
2024-03-07T08:01:07.325Z,14.32
2024-03-07T08:03:34.665Z,14.00
2024-03-07T08:06:04.145Z,14.43
2024-03-07T08:08:31.586Z,13.98
2024-03-07T08:10:58.971Z,15.35
2024-03-07T08:13:26.325Z,14.00
2024-03-07T08:15:53.674Z,13.77
2024-03-07T08:18:22.459Z,13.98
2024-03-07T08:20:51.953Z,14.02
2024-03-07T08:23:21.791Z,12.68
2024-03-07T08:25:49.096Z,12.70
2024-03-07T08:28:16.441Z,13.90
2024-03-07T08:30:43.830Z,13.38
2024-03-07T08:33:11.387Z,12.10
2024-03-07T08:35:39.192Z,13.05
2024-03-07T08:38:06.630Z,12.88
2024-03-07T08:40:36.528Z,11.50
2024-03-07T08:43:04.575Z,13.65
2024-03-07T08:48:00.098Z,11.45
2024-03-07T08:50:29.802Z,9.90
2024-03-07T08:52:57.586Z,9.77
2024-03-07T08:55:26.842Z,11.48
2024-03-07T08:57:55.848Z,11.32
2024-03-07T09:00:24.250Z,10.65
2024-03-07T09:02:52.788Z,11.38
2024-03-07T09:05:21.271Z,11.38
2024-03-07T09:07:49.106Z,10.00
2024-03-07T09:10:16.931Z,10.70
2024-03-07T09:12:45.429Z,9.30
2024-03-07T09:15:14.381Z,9.82
2024-03-07T09:17:41.994Z,9.85
2024-03-07T09:20:11.912Z,8.75
2024-03-07T09:22:39.565Z,10.07
2024-03-07T09:25:07.905Z,8.60
2024-03-07T09:27:35.297Z,8.70
2024-03-07T09:30:02.787Z,9.07
2024-03-07T09:32:31.597Z,9.13
2024-03-07T09:34:59.077Z,10.32
2024-03-07T09:37:26.656Z,10.52
2024-03-07T09:39:53.954Z,9.15
2024-03-07T09:42:23.449Z,8.88
2024-03-07T09:44:52.540Z,9.50
2024-03-07T09:47:21.166Z,9.80
2024-03-07T09:49:50.264Z,8.10
2024-03-07T09:52:18.681Z,8.38
2024-03-07T09:54:45.996Z,8.25
2024-03-07T09:57:14.199Z,7.63
2024-03-07T09:59:46.355Z,8.45
2024-03-07T10:02:16.358Z,7.85
2024-03-07T10:04:45.392Z,9.88
2024-03-07T10:07:14.313Z,8.35
2024-03-07T10:09:42.561Z,8.90
2024-03-07T10:12:10.503Z,10.80
2024-03-07T10:14:38.074Z,9.25
2024-03-07T10:17:05.690Z,8.90
2024-03-07T10:19:33.161Z,8.57
2024-03-07T10:22:00.796Z,8.57
2024-03-07T10:24:29.763Z,9.05
2024-03-07T10:26:57.249Z,8.55
2024-03-07T10:29:25.115Z,8.30
2024-03-07T10:31:58.008Z,7.93
2024-03-07T10:34:34.716Z,7.25
2024-03-07T10:37:02.147Z,8.45
2024-03-07T10:39:31.301Z,8.52
2024-03-07T10:42:02.354Z,8.32
2024-03-07T10:44:30.743Z,10.50
2024-03-07T10:46:59.334Z,8.32
2024-03-07T10:49:30.966Z,9.55
2024-03-07T10:52:03.657Z,8.77
2024-03-07T10:54:41.123Z,9.57
2024-03-07T10:57:20.951Z,10.07
2024-03-07T10:59:51.448Z,8.90
2024-03-07T11:02:31.762Z,11.23
2024-03-07T11:05:01.604Z,9.57
2024-03-07T11:07:29.622Z,10.52
2024-03-07T11:10:02.999Z,10.13
2024-03-07T11:12:32.127Z,10.05
2024-03-07T11:14:59.781Z,10.52
2024-03-07T11:17:28.294Z,10.48
2024-03-07T11:19:55.836Z,9.60
2024-03-07T11:22:30.959Z,8.38
2024-03-07T11:25:06.084Z,9.52
2024-03-07T11:27:34.397Z,8.45
2024-03-07T11:30:06.635Z,9.52
2024-03-07T11:32:36.724Z,8.60
2024-03-07T11:35:06.088Z,8.20
2024-03-07T11:37:41.074Z,9.20
2024-03-07T11:40:11.381Z,10.50
2024-03-07T11:42:38.704Z,9.73
2024-03-07T11:45:07.219Z,10.40
2024-03-07T11:47:37.951Z,11.57
2024-03-07T11:50:06.335Z,10.15
2024-03-07T11:52:33.912Z,9.45
2024-03-07T11:55:01.450Z,9.52
2024-03-07T11:57:30.265Z,9.02
2024-03-07T11:59:59.328Z,8.38
2024-03-07T12:02:28.539Z,10.07
2024-03-07T12:04:55.923Z,10.25
2024-03-07T12:07:23.497Z,10.73
2024-03-07T12:09:50.965Z,10.18
2024-03-07T12:12:18.777Z,10.43
2024-03-07T12:14:49.492Z,9.90
2024-03-07T12:17:17.117Z,9.02
2024-03-07T12:19:44.834Z,10.07
2024-03-07T12:22:12.918Z,9.88
2024-03-07T12:24:40.596Z,9.98
2024-03-07T12:27:10.118Z,9.05
2024-03-07T12:29:38.037Z,9.20
2024-03-07T12:32:07.940Z,11.07
2024-03-07T12:34:36.107Z,9.55
2024-03-07T12:37:05.111Z,11.43
2024-03-07T12:39:34.275Z,9.65
2024-03-07T12:42:01.825Z,8.95
2024-03-07T12:44:39.785Z,10.30
2024-03-07T12:47:10.703Z,10.65
2024-03-07T12:49:38.282Z,10.38
2024-03-07T12:52:07.654Z,10.07
2024-03-07T12:54:36.245Z,10.13
2024-03-07T12:57:04.272Z,9.68
2024-03-07T12:59:31.953Z,8.93
2024-03-07T13:01:59.339Z,9.43
2024-03-07T13:04:30.506Z,9.82
2024-03-07T13:06:57.866Z,11.20
2024-03-07T13:09:25.262Z,10.00
2024-03-07T13:11:56.063Z,9.48
2024-03-07T13:14:24.008Z,11.60
2024-03-07T13:16:51.402Z,10.10
2024-03-07T13:19:18.717Z,10.30
2024-03-07T13:21:47.818Z,9.75
2024-03-07T13:24:15.158Z,11.10
2024-03-07T13:26:46.588Z,9.30
2024-03-07T13:29:14.346Z,10.57
2024-03-07T13:31:42.301Z,10.43
2024-03-07T13:34:09.844Z,11.70
2024-03-07T13:36:37.161Z,9.80
2024-03-07T13:39:09.150Z,10.30
2024-03-07T13:41:36.724Z,9.15
2024-03-07T13:44:04.256Z,10.07
2024-03-07T13:46:31.571Z,11.63
2024-03-07T13:48:59.196Z,9.80
2024-03-07T13:51:26.547Z,10.55
2024-03-07T13:53:54.861Z,10.10
2024-03-07T13:56:43.754Z,10.70
2024-03-07T13:59:38.910Z,11.35
2024-03-07T14:02:26.700Z,11.00
2024-03-07T14:05:27.445Z,9.73
2024-03-07T14:08:15.003Z,10.02
2024-03-07T14:11:21.703Z,11.30
2024-03-07T14:14:15.115Z,10.70
2024-03-07T14:17:14.228Z,10.60
2024-03-07T14:22:48.892Z,11.70
2024-03-07T14:25:40.107Z,11.57
2024-03-07T14:28:18.066Z,12.25
2024-03-07T14:30:52.576Z,11.82
2024-03-07T14:33:27.328Z,10.93
2024-03-07T14:36:03.888Z,12.00
2024-03-07T14:38:44.222Z,10.30
2024-03-07T14:41:13.541Z,10.38
2024-03-07T14:43:41.486Z,10.30
2024-03-07T14:46:11.008Z,11.50
2024-03-07T14:48:38.492Z,11.85
2024-03-07T14:51:08.825Z,10.57
2024-03-07T14:53:36.542Z,10.95
2024-03-07T14:56:04.390Z,10.32
2024-03-07T14:58:32.433Z,10.02
2024-03-07T15:01:01.617Z,10.25
2024-03-07T15:03:30.883Z,9.32
2024-03-07T15:05:58.542Z,10.70
2024-03-07T15:08:27.069Z,10.10
2024-03-07T15:11:00.696Z,10.75
2024-03-07T15:13:28.256Z,11.10
2024-03-07T15:15:55.635Z,10.63
2024-03-07T15:18:23.314Z,11.23
2024-03-07T15:20:53.418Z,12.77
2024-03-07T15:23:20.749Z,12.32
2024-03-07T15:25:48.051Z,10.63
2024-03-07T15:28:15.367Z,10.00
2024-03-07T15:30:43.930Z,10.18
2024-03-07T15:33:12.750Z,10.88
2024-03-07T15:35:40.196Z,12.38
2024-03-07T15:38:10.184Z,10.82
2024-03-07T15:40:39.901Z,9.93
2024-03-07T15:43:07.201Z,10.23
2024-03-07T15:45:34.554Z,10.10
2024-03-07T15:48:02.611Z,10.30
2024-03-07T15:50:31.196Z,11.57
2024-03-07T15:52:59.032Z,9.30
2024-03-07T15:55:27.787Z,10.80
2024-03-07T15:57:56.717Z,10.00
2024-03-07T16:00:26.565Z,10.52
2024-03-07T16:02:55.332Z,10.45
2024-03-07T16:05:23.294Z,9.68
2024-03-07T16:07:51.759Z,10.55
2024-03-07T16:10:19.612Z,10.70
2024-03-07T16:12:48.388Z,9.63
2024-03-07T16:15:16.687Z,9.40
2024-03-07T16:17:44.381Z,10.77
2024-03-07T16:20:12.486Z,10.80
2024-03-07T16:22:41.138Z,10.50
2024-03-07T16:25:09.217Z,12.48
2024-03-07T16:27:36.977Z,11.70
2024-03-07T16:30:07.645Z,12.48
2024-03-07T16:32:35.237Z,9.10
2024-03-07T16:35:03.386Z,11.65
2024-03-07T16:37:30.682Z,10.93
2024-03-07T16:39:57.997Z,12.40
2024-03-07T16:42:25.277Z,11.52
2024-03-07T16:44:52.698Z,9.23
2024-03-07T16:47:21.494Z,11.30
2024-03-07T16:49:48.798Z,10.75
2024-03-07T16:52:16.113Z,12.07
2024-03-07T16:54:43.646Z,10.00
2024-03-07T16:57:11.259Z,11.50
2024-03-07T16:59:39.620Z,16.10
2024-03-07T17:02:07.110Z,11.02
2024-03-07T17:04:35.779Z,9.95
2024-03-07T17:07:03.367Z,10.73
2024-03-07T17:09:30.702Z,11.65
2024-03-07T17:11:58.115Z,12.75
2024-03-07T17:14:25.506Z,12.95
2024-03-07T17:16:53.133Z,11.38
2024-03-07T17:19:21.023Z,11.60
2024-03-07T17:21:49.712Z,12.32
2024-03-07T17:24:19.242Z,11.55
2024-03-07T17:26:47.946Z,13.10
2024-03-07T17:29:15.272Z,12.95
2024-03-07T17:31:42.556Z,13.93
2024-03-07T17:34:09.842Z,13.25
2024-03-07T17:36:37.193Z,12.68
2024-03-07T17:39:05.964Z,12.15
2024-03-07T17:41:33.620Z,13.68
2024-03-07T17:44:00.982Z,12.88
2024-03-07T17:46:29.343Z,13.25
2024-03-07T17:48:56.655Z,14.15
2024-03-07T17:51:23.974Z,12.93
2024-03-07T17:53:51.300Z,14.30
2024-03-07T17:56:21.310Z,14.13
2024-03-07T17:58:50.092Z,13.18
2024-03-07T18:01:17.544Z,15.18
2024-03-07T18:03:44.820Z,16.60
2024-03-07T18:06:12.244Z,15.32
2024-03-07T18:08:45.887Z,16.90
2024-03-07T18:11:16.646Z,17.00
2024-03-07T18:13:45.965Z,12.30
2024-03-07T18:16:14.243Z,14.50
2024-03-07T18:18:41.818Z,13.85
2024-03-07T18:21:09.673Z,21.67
2024-03-07T18:23:37.110Z,19.35
2024-03-07T18:26:05.578Z,13.68
2024-03-07T18:31:03.643Z,11.32
2024-03-07T18:33:32.035Z,12.82
2024-03-07T18:35:59.677Z,13.07
2024-03-07T18:38:27.115Z,14.05
2024-03-07T18:40:54.510Z,15.48
2024-03-07T18:43:22.978Z,14.45
2024-03-07T18:45:50.278Z,12.57
2024-03-07T18:48:20.231Z,12.45
2024-03-07T18:50:49.412Z,12.13
2024-03-07T18:53:17.872Z,14.27
2024-03-07T18:55:45.430Z,13.05
2024-03-07T18:58:13.366Z,12.63
2024-03-07T19:00:40.709Z,13.88
2024-03-07T19:03:09.030Z,12.35
2024-03-07T19:05:39.111Z,15.82
2024-03-07T19:08:07.781Z,13.65
2024-03-07T19:10:35.152Z,13.85
2024-03-07T19:13:02.597Z,14.25
2024-03-07T19:15:29.915Z,15.25
2024-03-07T19:17:57.482Z,13.40
2024-03-07T19:20:24.883Z,14.05
2024-03-07T19:22:53.889Z,13.30
2024-03-07T19:25:21.809Z,14.23
2024-03-07T19:27:49.992Z,14.43
2024-03-07T19:30:18.642Z,15.98
2024-03-07T19:32:46.050Z,17.15
2024-03-07T19:35:14.011Z,18.48
2024-03-07T19:37:42.611Z,17.48
2024-03-07T19:40:15.545Z,17.23
2024-03-07T19:42:43.241Z,17.17
2024-03-07T19:45:10.703Z,17.95
2024-03-07T19:47:38.122Z,15.68
2024-03-07T19:50:06.692Z,17.30
2024-03-07T19:52:37.415Z,13.82
2024-03-07T19:55:06.973Z,15.38
2024-03-07T19:57:38.212Z,15.77
2024-03-07T20:00:07.160Z,13.95
2024-03-07T20:02:34.485Z,13.32
2024-03-07T20:05:02.082Z,14.48
2024-03-07T20:07:29.506Z,14.18
2024-03-07T20:09:56.848Z,14.13
2024-03-07T20:12:24.690Z,13.75
2024-03-07T20:14:53.834Z,15.18
2024-03-07T20:17:21.419Z,15.10
2024-03-07T20:19:48.769Z,14.50
2024-03-07T20:22:16.100Z,15.52
2024-03-07T20:24:43.458Z,15.00
2024-03-07T20:27:10.833Z,15.85
2024-03-07T20:29:38.383Z,17.15
2024-03-07T20:32:07.618Z,21.48
2024-03-07T20:34:34.936Z,18.35
2024-03-07T20:37:02.313Z,16.48
2024-03-07T20:39:29.602Z,14.23
2024-03-07T20:41:58.385Z,15.38
2024-03-07T20:44:25.801Z,17.13
2024-03-07T20:46:53.129Z,13.13
2024-03-07T20:49:21.876Z,17.95
2024-03-07T20:51:49.342Z,13.82
2024-03-07T20:54:16.677Z,12.52
2024-03-07T20:56:43.974Z,12.20
2024-03-07T20:59:11.370Z,14.98
2024-03-07T21:01:38.673Z,14.90
2024-03-07T21:04:05.959Z,13.73
2024-03-07T21:06:34.891Z,12.70
2024-03-07T21:09:02.315Z,13.63
2024-03-07T21:11:29.853Z,13.88
2024-03-07T21:13:57.278Z,12.77
2024-03-07T21:16:24.811Z,14.00
2024-03-07T21:18:54.458Z,14.93
2024-03-07T21:21:22.999Z,13.98
2024-03-07T21:23:51.739Z,13.93
2024-03-07T21:26:19.072Z,13.93
2024-03-07T21:28:46.425Z,12.45
2024-03-07T21:31:14.946Z,14.48
2024-03-07T21:33:42.583Z,14.85
2024-03-07T21:36:10.286Z,12.73
2024-03-07T21:38:38.108Z,14.75
2024-03-07T21:41:06.830Z,12.52
2024-03-07T21:43:34.203Z,14.38
2024-03-07T21:46:01.787Z,14.13
2024-03-07T21:48:30.424Z,14.27
2024-03-07T21:53:27.390Z,13.30
2024-03-07T21:55:54.921Z,13.20
2024-03-07T21:58:23.820Z,14.05
2024-03-07T22:00:51.741Z,16.00
2024-03-07T22:03:19.147Z,13.85
2024-03-07T22:05:46.683Z,14.75
2024-03-07T22:08:14.114Z,14.52
2024-03-07T22:10:41.521Z,15.93
2024-03-07T22:13:08.871Z,14.25
2024-03-07T22:15:37.610Z,13.88
2024-03-07T22:18:05.272Z,13.52
2024-03-07T22:20:32.802Z,15.00
2024-03-07T22:23:00.197Z,13.73
2024-03-07T22:25:27.556Z,13.75
2024-03-07T22:27:55.384Z,15.50
2024-03-07T22:30:24.211Z,14.57
2024-03-07T22:32:54.263Z,17.50
2024-03-07T22:35:22.192Z,16.70
2024-03-07T22:37:49.810Z,15.25
2024-03-07T22:40:17.466Z,13.57
2024-03-07T22:42:45.010Z,14.95
2024-03-07T22:45:13.917Z,14.57
2024-03-07T22:47:41.682Z,13.18
2024-03-07T22:50:18.224Z,14.98
2024-03-07T22:52:54.285Z,13.90
2024-03-07T22:55:21.628Z,12.95
2024-03-07T22:57:49.073Z,13.48
2024-03-07T23:00:16.851Z,13.68
2024-03-07T23:02:44.208Z,13.45
2024-03-07T23:05:13.029Z,15.13
2024-03-07T23:07:40.539Z,12.98
2024-03-07T23:10:09.334Z,12.45
2024-03-07T23:12:36.674Z,13.77
2024-03-07T23:15:04.839Z,14.00
2024-03-07T23:17:32.298Z,14.48
2024-03-07T23:19:59.597Z,11.85
2024-03-07T23:22:28.286Z,12.90
2024-03-07T23:27:22.595Z,10.95
2024-03-07T23:29:49.966Z,12.73
2024-03-07T23:32:17.364Z,15.23
2024-03-07T23:34:44.671Z,16.00
2024-03-07T23:37:12.001Z,18.35
2024-03-07T23:39:40.813Z,19.42
2024-03-07T23:42:08.205Z,18.27
2024-03-07T23:44:35.564Z,19.27
2024-03-07T23:47:02.985Z,19.05
2024-03-07T23:49:30.270Z,16.63
2024-03-07T23:51:57.563Z,15.95
2024-03-07T23:54:24.973Z,15.63
2024-03-07T23:56:53.774Z,16.70
2024-03-07T23:59:21.116Z,15.68
